sensor_id;sensor_type;location;lat;lon;timestamp;P1;durP1;ratioP1;P2;durP2;ratioP2
44110;SDS011;29774;52.664;5.074;2023-06-14T00:00:38;4.45;;;1.90;;
44110;SDS011;29774;52.664;5.074;2023-06-14T00:03:08;7.70;;;2.58;;
44110;SDS011;29774;52.664;5.074;2023-06-14T00:05:35;4.00;;;2.00;;
44110;SDS011;29774;52.664;5.074;2023-06-14T00:08:05;2.53;;;1.60;;
44110;SDS011;29774;52.664;5.074;2023-06-14T00:10:35;6.38;;;2.17;;
44110;SDS011;29774;52.664;5.074;2023-06-14T00:13:04;5.25;;;2.50;;
44110;SDS011;29774;52.664;5.074;2023-06-14T00:15:33;4.57;;;2.60;;
44110;SDS011;29774;52.664;5.074;2023-06-14T00:17:59;4.43;;;1.92;;
44110;SDS011;29774;52.664;5.074;2023-06-14T00:20:28;5.70;;;2.20;;
44110;SDS011;29774;52.664;5.074;2023-06-14T00:22:55;5.93;;;2.13;;
44110;SDS011;29774;52.664;5.074;2023-06-14T00:25:22;6.35;;;2.00;;
44110;SDS011;29774;52.664;5.074;2023-06-14T00:27:50;2.25;;;1.98;;
44110;SDS011;29774;52.664;5.074;2023-06-14T00:30:16;2.47;;;1.80;;
44110;SDS011;29774;52.664;5.074;2023-06-14T00:32:42;4.78;;;1.85;;
44110;SDS011;29774;52.664;5.074;2023-06-14T00:35:08;2.40;;;1.98;;
44110;SDS011;29774;52.664;5.074;2023-06-14T00:37:34;2.78;;;2.13;;
44110;SDS011;29774;52.664;5.074;2023-06-14T00:40:00;2.05;;;1.77;;
44110;SDS011;29774;52.664;5.074;2023-06-14T00:42:26;8.38;;;2.20;;
44110;SDS011;29774;52.664;5.074;2023-06-14T00:44:53;5.05;;;2.28;;
44110;SDS011;29774;52.664;5.074;2023-06-14T00:47:19;3.20;;;1.85;;
44110;SDS011;29774;52.664;5.074;2023-06-14T00:49:45;4.88;;;2.70;;
44110;SDS011;29774;52.664;5.074;2023-06-14T00:52:12;2.10;;;1.63;;
44110;SDS011;29774;52.664;5.074;2023-06-14T00:54:39;3.17;;;2.47;;
44110;SDS011;29774;52.664;5.074;2023-06-14T00:57:06;6.55;;;2.10;;
44110;SDS011;29774;52.664;5.074;2023-06-14T00:59:32;6.43;;;2.10;;
44110;SDS011;29774;52.664;5.074;2023-06-14T01:01:58;3.58;;;2.10;;
44110;SDS011;29774;52.664;5.074;2023-06-14T01:04:24;3.92;;;2.03;;
44110;SDS011;29774;52.664;5.074;2023-06-14T01:07:02;4.57;;;2.35;;
44110;SDS011;29774;52.664;5.074;2023-06-14T01:09:53;4.65;;;1.80;;
44110;SDS011;29774;52.664;5.074;2023-06-14T01:12:51;3.00;;;1.73;;
44110;SDS011;29774;52.664;5.074;2023-06-14T01:15:23;5.95;;;1.75;;
44110;SDS011;29774;52.664;5.074;2023-06-14T01:17:51;4.50;;;2.17;;
44110;SDS011;29774;52.664;5.074;2023-06-14T01:20:19;5.28;;;2.22;;
44110;SDS011;29774;52.664;5.074;2023-06-14T01:22:52;3.63;;;1.98;;
44110;SDS011;29774;52.664;5.074;2023-06-14T01:25:22;4.93;;;2.00;;
44110;SDS011;29774;52.664;5.074;2023-06-14T01:27:49;6.07;;;2.30;;
44110;SDS011;29774;52.664;5.074;2023-06-14T01:30:17;4.63;;;2.30;;
44110;SDS011;29774;52.664;5.074;2023-06-14T01:32:45;3.38;;;1.70;;
44110;SDS011;29774;52.664;5.074;2023-06-14T01:35:11;3.67;;;1.77;;
44110;SDS011;29774;52.664;5.074;2023-06-14T01:37:37;4.25;;;1.92;;
44110;SDS011;29774;52.664;5.074;2023-06-14T01:40:04;7.28;;;1.70;;
44110;SDS011;29774;52.664;5.074;2023-06-14T01:42:33;2.30;;;1.65;;
44110;SDS011;29774;52.664;5.074;2023-06-14T01:45:00;5.85;;;2.10;;
44110;SDS011;29774;52.664;5.074;2023-06-14T01:47:28;3.80;;;1.73;;
44110;SDS011;29774;52.664;5.074;2023-06-14T01:49:55;2.90;;;2.10;;
44110;SDS011;29774;52.664;5.074;2023-06-14T01:52:21;3.35;;;1.70;;
44110;SDS011;29774;52.664;5.074;2023-06-14T01:54:47;3.55;;;2.20;;
44110;SDS011;29774;52.664;5.074;2023-06-14T01:57:14;5.75;;;2.15;;
44110;SDS011;29774;52.664;5.074;2023-06-14T01:59:40;4.47;;;2.00;;
44110;SDS011;29774;52.664;5.074;2023-06-14T02:02:06;3.85;;;1.65;;
44110;SDS011;29774;52.664;5.074;2023-06-14T02:04:32;3.45;;;1.83;;
44110;SDS011;29774;52.664;5.074;2023-06-14T02:06:57;3.95;;;1.85;;
44110;SDS011;29774;52.664;5.074;2023-06-14T02:09:23;4.65;;;2.13;;
44110;SDS011;29774;52.664;5.074;2023-06-14T02:11:48;5.95;;;1.77;;
44110;SDS011;29774;52.664;5.074;2023-06-14T02:14:14;3.92;;;1.60;;
44110;SDS011;29774;52.664;5.074;2023-06-14T02:16:42;5.00;;;1.90;;
44110;SDS011;29774;52.664;5.074;2023-06-14T02:19:14;4.93;;;1.90;;
44110;SDS011;29774;52.664;5.074;2023-06-14T02:21:41;3.03;;;1.63;;
44110;SDS011;29774;52.664;5.074;2023-06-14T02:24:07;5.30;;;2.10;;
44110;SDS011;29774;52.664;5.074;2023-06-14T02:26:32;4.20;;;2.13;;
44110;SDS011;29774;52.664;5.074;2023-06-14T02:28:58;5.97;;;1.77;;
44110;SDS011;29774;52.664;5.074;2023-06-14T02:31:23;2.28;;;1.85;;
44110;SDS011;29774;52.664;5.074;2023-06-14T02:33:49;4.25;;;1.73;;
44110;SDS011;29774;52.664;5.074;2023-06-14T02:36:15;4.20;;;2.00;;
44110;SDS011;29774;52.664;5.074;2023-06-14T02:38:40;5.35;;;1.90;;
44110;SDS011;29774;52.664;5.074;2023-06-14T02:41:06;5.88;;;1.90;;
44110;SDS011;29774;52.664;5.074;2023-06-14T02:43:32;2.15;;;1.50;;
44110;SDS011;29774;52.664;5.074;2023-06-14T02:45:57;5.07;;;2.03;;
44110;SDS011;29774;52.664;5.074;2023-06-14T02:48:23;3.47;;;1.77;;
44110;SDS011;29774;52.664;5.074;2023-06-14T02:50:48;3.47;;;1.60;;
44110;SDS011;29774;52.664;5.074;2023-06-14T02:53:15;3.90;;;1.65;;
44110;SDS011;29774;52.664;5.074;2023-06-14T02:55:40;2.75;;;2.10;;
44110;SDS011;29774;52.664;5.074;2023-06-14T02:58:06;5.90;;;1.88;;
44110;SDS011;29774;52.664;5.074;2023-06-14T03:00:32;4.63;;;1.90;;
44110;SDS011;29774;52.664;5.074;2023-06-14T03:02:58;5.00;;;1.95;;
44110;SDS011;29774;52.664;5.074;2023-06-14T03:05:26;6.43;;;1.70;;
44110;SDS011;29774;52.664;5.074;2023-06-14T03:07:53;3.00;;;1.65;;
44110;SDS011;29774;52.664;5.074;2023-06-14T03:10:18;4.55;;;1.90;;
44110;SDS011;29774;52.664;5.074;2023-06-14T03:12:44;3.67;;;2.15;;
44110;SDS011;29774;52.664;5.074;2023-06-14T03:15:10;3.20;;;1.95;;
44110;SDS011;29774;52.664;5.074;2023-06-14T03:17:38;3.78;;;2.00;;
44110;SDS011;29774;52.664;5.074;2023-06-14T03:20:04;3.13;;;1.83;;
44110;SDS011;29774;52.664;5.074;2023-06-14T03:22:30;3.15;;;1.70;;
44110;SDS011;29774;52.664;5.074;2023-06-14T03:24:58;2.83;;;1.80;;
44110;SDS011;29774;52.664;5.074;2023-06-14T03:27:24;7.43;;;2.10;;
44110;SDS011;29774;52.664;5.074;2023-06-14T03:29:50;6.07;;;1.88;;
44110;SDS011;29774;52.664;5.074;2023-06-14T03:32:16;4.40;;;2.28;;
44110;SDS011;29774;52.664;5.074;2023-06-14T03:34:41;3.17;;;1.90;;
44110;SDS011;29774;52.664;5.074;2023-06-14T03:37:07;2.90;;;1.88;;
44110;SDS011;29774;52.664;5.074;2023-06-14T03:39:33;6.10;;;2.10;;
44110;SDS011;29774;52.664;5.074;2023-06-14T03:41:58;4.22;;;2.08;;
44110;SDS011;29774;52.664;5.074;2023-06-14T03:44:26;6.68;;;2.45;;
44110;SDS011;29774;52.664;5.074;2023-06-14T03:46:51;8.80;;;2.08;;
44110;SDS011;29774;52.664;5.074;2023-06-14T03:49:18;2.58;;;1.90;;
44110;SDS011;29774;52.664;5.074;2023-06-14T03:51:43;5.35;;;1.75;;
44110;SDS011;29774;52.664;5.074;2023-06-14T03:54:09;6.28;;;1.83;;
44110;SDS011;29774;52.664;5.074;2023-06-14T03:56:35;4.38;;;1.92;;
44110;SDS011;29774;52.664;5.074;2023-06-14T03:59:01;3.30;;;1.80;;
44110;SDS011;29774;52.664;5.074;2023-06-14T04:01:27;3.08;;;1.83;;
44110;SDS011;29774;52.664;5.074;2023-06-14T04:03:57;6.22;;;2.35;;
44110;SDS011;29774;52.664;5.074;2023-06-14T04:06:23;2.45;;;1.73;;
44110;SDS011;29774;52.664;5.074;2023-06-14T04:08:50;2.92;;;1.50;;
44110;SDS011;29774;52.664;5.074;2023-06-14T04:11:17;2.97;;;1.80;;
44110;SDS011;29774;52.664;5.074;2023-06-14T04:13:42;5.05;;;1.90;;
44110;SDS011;29774;52.664;5.074;2023-06-14T04:16:08;2.88;;;1.80;;
44110;SDS011;29774;52.664;5.074;2023-06-14T04:18:34;3.47;;;1.70;;
44110;SDS011;29774;52.664;5.074;2023-06-14T04:21:00;3.65;;;2.28;;
44110;SDS011;29774;52.664;5.074;2023-06-14T04:23:26;4.82;;;2.42;;
44110;SDS011;29774;52.664;5.074;2023-06-14T04:25:53;2.53;;;1.60;;
44110;SDS011;29774;52.664;5.074;2023-06-14T04:28:18;3.42;;;1.83;;
44110;SDS011;29774;52.664;5.074;2023-06-14T04:30:44;2.95;;;2.20;;
44110;SDS011;29774;52.664;5.074;2023-06-14T04:33:12;3.22;;;1.70;;
44110;SDS011;29774;52.664;5.074;2023-06-14T04:35:38;2.75;;;1.65;;
44110;SDS011;29774;52.664;5.074;2023-06-14T04:38:05;1.80;;;1.63;;
44110;SDS011;29774;52.664;5.074;2023-06-14T04:40:34;7.68;;;1.67;;
44110;SDS011;29774;52.664;5.074;2023-06-14T04:43:01;5.38;;;2.00;;
44110;SDS011;29774;52.664;5.074;2023-06-14T04:45:31;3.50;;;2.08;;
44110;SDS011;29774;52.664;5.074;2023-06-14T04:47:58;4.13;;;1.88;;
44110;SDS011;29774;52.664;5.074;2023-06-14T04:50:24;2.55;;;1.80;;
44110;SDS011;29774;52.664;5.074;2023-06-14T04:52:50;2.60;;;1.67;;
44110;SDS011;29774;52.664;5.074;2023-06-14T04:55:16;3.88;;;1.88;;
44110;SDS011;29774;52.664;5.074;2023-06-14T04:57:44;2.25;;;1.98;;
44110;SDS011;29774;52.664;5.074;2023-06-14T05:00:09;2.05;;;1.73;;
44110;SDS011;29774;52.664;5.074;2023-06-14T05:02:36;2.35;;;1.60;;
44110;SDS011;29774;52.664;5.074;2023-06-14T05:05:03;3.55;;;1.83;;
44110;SDS011;29774;52.664;5.074;2023-06-14T05:07:32;6.00;;;2.13;;
44110;SDS011;29774;52.664;5.074;2023-06-14T05:09:58;3.97;;;2.05;;
44110;SDS011;29774;52.664;5.074;2023-06-14T05:12:24;4.38;;;2.28;;
44110;SDS011;29774;52.664;5.074;2023-06-14T05:14:50;2.92;;;2.03;;
44110;SDS011;29774;52.664;5.074;2023-06-14T05:17:15;3.65;;;2.08;;
44110;SDS011;29774;52.664;5.074;2023-06-14T05:19:42;2.83;;;2.28;;
44110;SDS011;29774;52.664;5.074;2023-06-14T05:22:07;4.60;;;1.95;;
44110;SDS011;29774;52.664;5.074;2023-06-14T05:24:33;4.95;;;1.77;;
44110;SDS011;29774;52.664;5.074;2023-06-14T05:26:59;2.35;;;1.70;;
44110;SDS011;29774;52.664;5.074;2023-06-14T05:29:24;4.57;;;2.10;;
44110;SDS011;29774;52.664;5.074;2023-06-14T05:31:51;2.45;;;2.00;;
44110;SDS011;29774;52.664;5.074;2023-06-14T05:34:16;4.32;;;2.20;;
44110;SDS011;29774;52.664;5.074;2023-06-14T05:36:42;5.95;;;2.25;;
44110;SDS011;29774;52.664;5.074;2023-06-14T05:39:07;4.80;;;1.83;;
44110;SDS011;29774;52.664;5.074;2023-06-14T05:41:33;3.38;;;1.63;;
44110;SDS011;29774;52.664;5.074;2023-06-14T05:43:59;3.58;;;2.45;;
44110;SDS011;29774;52.664;5.074;2023-06-14T05:46:25;4.18;;;2.10;;
44110;SDS011;29774;52.664;5.074;2023-06-14T05:48:51;3.65;;;2.30;;
44110;SDS011;29774;52.664;5.074;2023-06-14T05:51:17;7.57;;;2.33;;
44110;SDS011;29774;52.664;5.074;2023-06-14T05:53:48;4.25;;;2.22;;
44110;SDS011;29774;52.664;5.074;2023-06-14T05:56:15;6.25;;;1.98;;
44110;SDS011;29774;52.664;5.074;2023-06-14T05:58:42;7.25;;;2.58;;
44110;SDS011;29774;52.664;5.074;2023-06-14T06:01:08;3.45;;;2.03;;
44110;SDS011;29774;52.664;5.074;2023-06-14T06:03:33;3.45;;;2.25;;
44110;SDS011;29774;52.664;5.074;2023-06-14T06:05:59;2.05;;;1.75;;
44110;SDS011;29774;52.664;5.074;2023-06-14T06:08:25;4.00;;;2.63;;
44110;SDS011;29774;52.664;5.074;2023-06-14T06:10:51;3.38;;;2.40;;
44110;SDS011;29774;52.664;5.074;2023-06-14T06:13:17;3.65;;;2.38;;
44110;SDS011;29774;52.664;5.074;2023-06-14T06:15:42;3.33;;;2.03;;
44110;SDS011;29774;52.664;5.074;2023-06-14T06:18:08;2.03;;;1.92;;
44110;SDS011;29774;52.664;5.074;2023-06-14T06:20:34;3.35;;;2.30;;
44110;SDS011;29774;52.664;5.074;2023-06-14T06:23:01;4.72;;;2.53;;
44110;SDS011;29774;52.664;5.074;2023-06-14T06:25:27;5.88;;;2.50;;
44110;SDS011;29774;52.664;5.074;2023-06-14T06:27:53;3.63;;;2.53;;
44110;SDS011;29774;52.664;5.074;2023-06-14T06:30:21;3.80;;;2.30;;
44110;SDS011;29774;52.664;5.074;2023-06-14T06:32:46;4.10;;;2.72;;
44110;SDS011;29774;52.664;5.074;2023-06-14T06:35:12;4.45;;;2.40;;
44110;SDS011;29774;52.664;5.074;2023-06-14T06:37:38;8.18;;;2.20;;
44110;SDS011;29774;52.664;5.074;2023-06-14T06:40:04;5.03;;;2.58;;
44110;SDS011;29774;52.664;5.074;2023-06-14T06:42:31;5.30;;;2.13;;
44110;SDS011;29774;52.664;5.074;2023-06-14T06:44:57;5.40;;;2.33;;
44110;SDS011;29774;52.664;5.074;2023-06-14T06:47:22;3.33;;;2.25;;
44110;SDS011;29774;52.664;5.074;2023-06-14T06:49:48;7.05;;;2.50;;
44110;SDS011;29774;52.664;5.074;2023-06-14T06:52:14;4.68;;;2.40;;
44110;SDS011;29774;52.664;5.074;2023-06-14T06:54:40;8.25;;;2.70;;
44110;SDS011;29774;52.664;5.074;2023-06-14T06:57:05;3.78;;;2.20;;
44110;SDS011;29774;52.664;5.074;2023-06-14T06:59:31;6.07;;;2.50;;
44110;SDS011;29774;52.664;5.074;2023-06-14T07:01:57;4.85;;;2.45;;
44110;SDS011;29774;52.664;5.074;2023-06-14T07:04:23;4.60;;;2.42;;
44110;SDS011;29774;52.664;5.074;2023-06-14T07:06:49;4.78;;;2.50;;
44110;SDS011;29774;52.664;5.074;2023-06-14T07:09:14;5.13;;;2.40;;
44110;SDS011;29774;52.664;5.074;2023-06-14T07:11:44;5.03;;;2.50;;
44110;SDS011;29774;52.664;5.074;2023-06-14T07:14:10;4.50;;;2.45;;
44110;SDS011;29774;52.664;5.074;2023-06-14T07:16:36;5.75;;;3.35;;
44110;SDS011;29774;52.664;5.074;2023-06-14T07:19:02;4.25;;;2.58;;
44110;SDS011;29774;52.664;5.074;2023-06-14T07:21:28;4.20;;;2.42;;
44110;SDS011;29774;52.664;5.074;2023-06-14T07:23:54;3.80;;;2.50;;
44110;SDS011;29774;52.664;5.074;2023-06-14T07:26:20;4.40;;;2.78;;
44110;SDS011;29774;52.664;5.074;2023-06-14T07:28:46;4.78;;;2.10;;
44110;SDS011;29774;52.664;5.074;2023-06-14T07:31:13;4.90;;;2.30;;
44110;SDS011;29774;52.664;5.074;2023-06-14T07:33:40;4.10;;;2.50;;
44110;SDS011;29774;52.664;5.074;2023-06-14T07:36:06;4.43;;;2.85;;
44110;SDS011;29774;52.664;5.074;2023-06-14T07:38:32;4.93;;;2.70;;
44110;SDS011;29774;52.664;5.074;2023-06-14T07:40:58;7.07;;;2.60;;
44110;SDS011;29774;52.664;5.074;2023-06-14T07:43:24;6.60;;;2.35;;
44110;SDS011;29774;52.664;5.074;2023-06-14T07:45:50;7.15;;;2.42;;
44110;SDS011;29774;52.664;5.074;2023-06-14T07:48:16;4.40;;;2.85;;
44110;SDS011;29774;52.664;5.074;2023-06-14T07:50:41;6.53;;;2.35;;
44110;SDS011;29774;52.664;5.074;2023-06-14T07:53:08;3.58;;;2.55;;
44110;SDS011;29774;52.664;5.074;2023-06-14T07:55:33;5.85;;;3.30;;
44110;SDS011;29774;52.664;5.074;2023-06-14T07:58:02;3.17;;;2.47;;
44110;SDS011;29774;52.664;5.074;2023-06-14T08:00:28;5.28;;;2.40;;
44110;SDS011;29774;52.664;5.074;2023-06-14T08:02:53;4.15;;;2.35;;
44110;SDS011;29774;52.664;5.074;2023-06-14T08:05:23;9.75;;;2.63;;
44110;SDS011;29774;52.664;5.074;2023-06-14T08:07:49;6.30;;;2.83;;
44110;SDS011;29774;52.664;5.074;2023-06-14T08:10:15;2.45;;;2.25;;
44110;SDS011;29774;52.664;5.074;2023-06-14T08:12:40;4.80;;;2.45;;
44110;SDS011;29774;52.664;5.074;2023-06-14T08:15:06;4.18;;;2.15;;
44110;SDS011;29774;52.664;5.074;2023-06-14T08:17:32;4.03;;;2.47;;
44110;SDS011;29774;52.664;5.074;2023-06-14T08:19:58;3.30;;;2.28;;
44110;SDS011;29774;52.664;5.074;2023-06-14T08:22:24;6.70;;;2.20;;
44110;SDS011;29774;52.664;5.074;2023-06-14T08:24:50;3.53;;;2.10;;
44110;SDS011;29774;52.664;5.074;2023-06-14T08:27:19;2.65;;;2.00;;
44110;SDS011;29774;52.664;5.074;2023-06-14T08:29:45;5.50;;;2.65;;
44110;SDS011;29774;52.664;5.074;2023-06-14T08:32:10;6.53;;;2.50;;
44110;SDS011;29774;52.664;5.074;2023-06-14T08:34:36;3.20;;;2.28;;
44110;SDS011;29774;52.664;5.074;2023-06-14T08:37:02;3.30;;;2.15;;
44110;SDS011;29774;52.664;5.074;2023-06-14T08:39:27;3.58;;;1.83;;
44110;SDS011;29774;52.664;5.074;2023-06-14T08:41:53;6.50;;;2.47;;
44110;SDS011;29774;52.664;5.074;2023-06-14T08:44:21;5.85;;;2.05;;
44110;SDS011;29774;52.664;5.074;2023-06-14T08:46:47;4.00;;;2.08;;
44110;SDS011;29774;52.664;5.074;2023-06-14T08:49:13;3.45;;;1.80;;
44110;SDS011;29774;52.664;5.074;2023-06-14T08:51:42;3.58;;;1.80;;
44110;SDS011;29774;52.664;5.074;2023-06-14T08:54:08;2.33;;;1.80;;
44110;SDS011;29774;52.664;5.074;2023-06-14T08:56:36;6.57;;;2.00;;
44110;SDS011;29774;52.664;5.074;2023-06-14T08:59:03;7.13;;;1.42;;
44110;SDS011;29774;52.664;5.074;2023-06-14T09:01:34;6.10;;;1.95;;
44110;SDS011;29774;52.664;5.074;2023-06-14T09:04:01;3.42;;;1.55;;
44110;SDS011;29774;52.664;5.074;2023-06-14T09:06:27;3.78;;;1.85;;
44110;SDS011;29774;52.664;5.074;2023-06-14T09:08:54;3.22;;;1.85;;
44110;SDS011;29774;52.664;5.074;2023-06-14T09:11:23;3.30;;;1.85;;
44110;SDS011;29774;52.664;5.074;2023-06-14T09:13:50;3.00;;;2.05;;
44110;SDS011;29774;52.664;5.074;2023-06-14T09:16:16;2.72;;;1.88;;
44110;SDS011;29774;52.664;5.074;2023-06-14T09:18:43;1.80;;;1.50;;
44110;SDS011;29774;52.664;5.074;2023-06-14T09:21:12;2.80;;;1.75;;
44110;SDS011;29774;52.664;5.074;2023-06-14T09:23:43;2.58;;;1.60;;
44110;SDS011;29774;52.664;5.074;2023-06-14T09:26:10;3.25;;;1.40;;
44110;SDS011;29774;52.664;5.074;2023-06-14T09:28:47;3.28;;;1.20;;
44110;SDS011;29774;52.664;5.074;2023-06-14T09:31:15;2.03;;;1.30;;
44110;SDS011;29774;52.664;5.074;2023-06-14T09:33:45;3.35;;;1.55;;
44110;SDS011;29774;52.664;5.074;2023-06-14T09:36:15;6.35;;;1.50;;
44110;SDS011;29774;52.664;5.074;2023-06-14T09:41:30;4.10;;;1.90;;
44110;SDS011;29774;52.664;5.074;2023-06-14T09:44:00;3.67;;;1.85;;
44110;SDS011;29774;52.664;5.074;2023-06-14T09:46:27;3.22;;;1.45;;
44110;SDS011;29774;52.664;5.074;2023-06-14T09:48:55;2.88;;;1.83;;
44110;SDS011;29774;52.664;5.074;2023-06-14T09:51:22;1.90;;;1.48;;
44110;SDS011;29774;52.664;5.074;2023-06-14T09:53:48;1.83;;;1.60;;
44110;SDS011;29774;52.664;5.074;2023-06-14T09:56:22;5.13;;;1.80;;
44110;SDS011;29774;52.664;5.074;2023-06-14T09:58:54;5.53;;;2.08;;
44110;SDS011;29774;52.664;5.074;2023-06-14T10:01:21;2.55;;;1.45;;
44110;SDS011;29774;52.664;5.074;2023-06-14T10:03:50;3.03;;;1.77;;
44110;SDS011;29774;52.664;5.074;2023-06-14T10:06:18;3.35;;;2.00;;
44110;SDS011;29774;52.664;5.074;2023-06-14T10:08:46;2.33;;;1.77;;
44110;SDS011;29774;52.664;5.074;2023-06-14T10:11:13;2.50;;;2.08;;
44110;SDS011;29774;52.664;5.074;2023-06-14T10:13:39;5.15;;;2.58;;
44110;SDS011;29774;52.664;5.074;2023-06-14T10:21:41;5.00;;;1.80;;
44110;SDS011;29774;52.664;5.074;2023-06-14T10:24:17;2.95;;;2.65;;
44110;SDS011;29774;52.664;5.074;2023-06-14T10:26:50;2.03;;;1.83;;
44110;SDS011;29774;52.664;5.074;2023-06-14T10:29:16;3.53;;;1.88;;
44110;SDS011;29774;52.664;5.074;2023-06-14T10:34:09;2.65;;;1.48;;
44110;SDS011;29774;52.664;5.074;2023-06-14T10:36:35;6.85;;;1.98;;
44110;SDS011;29774;52.664;5.074;2023-06-14T10:39:08;3.47;;;2.17;;
44110;SDS011;29774;52.664;5.074;2023-06-14T10:41:41;2.30;;;1.85;;
44110;SDS011;29774;52.664;5.074;2023-06-14T10:46:48;2.35;;;1.48;;
44110;SDS011;29774;52.664;5.074;2023-06-14T10:49:36;5.45;;;2.00;;
44110;SDS011;29774;52.664;5.074;2023-06-14T10:52:11;2.75;;;1.58;;
44110;SDS011;29774;52.664;5.074;2023-06-14T10:57:43;3.60;;;1.80;;
44110;SDS011;29774;52.664;5.074;2023-06-14T11:00:10;3.78;;;1.55;;
44110;SDS011;29774;52.664;5.074;2023-06-14T11:05:25;2.65;;;1.70;;
44110;SDS011;29774;52.664;5.074;2023-06-14T11:10:48;5.65;;;1.80;;
44110;SDS011;29774;52.664;5.074;2023-06-14T11:13:18;4.68;;;1.70;;
44110;SDS011;29774;52.664;5.074;2023-06-14T11:15:44;2.55;;;2.05;;
44110;SDS011;29774;52.664;5.074;2023-06-14T11:18:12;1.73;;;1.60;;
44110;SDS011;29774;52.664;5.074;2023-06-14T11:20:39;2.13;;;1.63;;
44110;SDS011;29774;52.664;5.074;2023-06-14T11:23:05;1.70;;;1.38;;
44110;SDS011;29774;52.664;5.074;2023-06-14T11:25:31;4.03;;;1.35;;
44110;SDS011;29774;52.664;5.074;2023-06-14T11:27:57;3.03;;;1.80;;
44110;SDS011;29774;52.664;5.074;2023-06-14T11:30:23;2.17;;;1.88;;
44110;SDS011;29774;52.664;5.074;2023-06-14T11:32:51;1.90;;;1.52;;
44110;SDS011;29774;52.664;5.074;2023-06-14T11:35:19;5.63;;;1.70;;
44110;SDS011;29774;52.664;5.074;2023-06-14T11:37:48;6.05;;;1.98;;
44110;SDS011;29774;52.664;5.074;2023-06-14T11:40:14;2.75;;;1.40;;
44110;SDS011;29774;52.664;5.074;2023-06-14T11:42:40;3.65;;;1.50;;
44110;SDS011;29774;52.664;5.074;2023-06-14T11:45:07;2.20;;;1.73;;
44110;SDS011;29774;52.664;5.074;2023-06-14T11:47:37;1.95;;;1.63;;
44110;SDS011;29774;52.664;5.074;2023-06-14T11:50:04;4.80;;;1.80;;
44110;SDS011;29774;52.664;5.074;2023-06-14T11:52:32;2.58;;;1.60;;
44110;SDS011;29774;52.664;5.074;2023-06-14T11:54:58;5.45;;;1.90;;
44110;SDS011;29774;52.664;5.074;2023-06-14T11:57:24;4.68;;;1.50;;
44110;SDS011;29774;52.664;5.074;2023-06-14T11:59:50;1.67;;;1.42;;
44110;SDS011;29774;52.664;5.074;2023-06-14T12:02:16;2.33;;;1.45;;
44110;SDS011;29774;52.664;5.074;2023-06-14T12:04:44;5.40;;;1.88;;
44110;SDS011;29774;52.664;5.074;2023-06-14T12:07:16;4.13;;;1.50;;
44110;SDS011;29774;52.664;5.074;2023-06-14T12:12:23;1.30;;;1.20;;
44110;SDS011;29774;52.664;5.074;2023-06-14T12:14:52;2.25;;;1.48;;
44110;SDS011;29774;52.664;5.074;2023-06-14T12:17:18;2.33;;;1.80;;
44110;SDS011;29774;52.664;5.074;2023-06-14T12:19:45;3.03;;;1.60;;
44110;SDS011;29774;52.664;5.074;2023-06-14T12:22:12;1.98;;;1.77;;
44110;SDS011;29774;52.664;5.074;2023-06-14T12:24:38;3.08;;;1.70;;
44110;SDS011;29774;52.664;5.074;2023-06-14T12:27:07;4.20;;;1.80;;
44110;SDS011;29774;52.664;5.074;2023-06-14T12:29:33;2.13;;;1.70;;
44110;SDS011;29774;52.664;5.074;2023-06-14T12:32:01;2.40;;;1.63;;
44110;SDS011;29774;52.664;5.074;2023-06-14T12:34:27;3.80;;;1.40;;
44110;SDS011;29774;52.664;5.074;2023-06-14T12:36:53;2.88;;;1.40;;
44110;SDS011;29774;52.664;5.074;2023-06-14T12:39:19;1.60;;;1.50;;
44110;SDS011;29774;52.664;5.074;2023-06-14T12:41:45;4.65;;;1.67;;
44110;SDS011;29774;52.664;5.074;2023-06-14T12:44:11;4.15;;;1.70;;
44110;SDS011;29774;52.664;5.074;2023-06-14T12:46:38;2.80;;;1.63;;
44110;SDS011;29774;52.664;5.074;2023-06-14T12:49:04;4.70;;;1.48;;
44110;SDS011;29774;52.664;5.074;2023-06-14T12:51:31;1.50;;;1.40;;
44110;SDS011;29774;52.664;5.074;2023-06-14T12:53:57;6.25;;;1.70;;
44110;SDS011;29774;52.664;5.074;2023-06-14T12:56:23;5.10;;;1.73;;
44110;SDS011;29774;52.664;5.074;2023-06-14T12:58:49;1.42;;;1.33;;
44110;SDS011;29774;52.664;5.074;2023-06-14T13:01:15;2.67;;;1.40;;
44110;SDS011;29774;52.664;5.074;2023-06-14T13:03:41;3.75;;;1.40;;
44110;SDS011;29774;52.664;5.074;2023-06-14T13:06:06;3.78;;;1.38;;
44110;SDS011;29774;52.664;5.074;2023-06-14T13:08:32;1.77;;;1.50;;
44110;SDS011;29774;52.664;5.074;2023-06-14T13:10:57;1.58;;;1.25;;
44110;SDS011;29774;52.664;5.074;2023-06-14T13:13:23;1.60;;;1.50;;
44110;SDS011;29774;52.664;5.074;2023-06-14T13:15:49;4.32;;;1.55;;
44110;SDS011;29774;52.664;5.074;2023-06-14T13:18:15;1.58;;;1.45;;
44110;SDS011;29774;52.664;5.074;2023-06-14T13:20:41;1.88;;;1.48;;
44110;SDS011;29774;52.664;5.074;2023-06-14T13:23:07;3.28;;;2.15;;
44110;SDS011;29774;52.664;5.074;2023-06-14T13:25:34;2.00;;;1.42;;
44110;SDS011;29774;52.664;5.074;2023-06-14T13:28:01;3.13;;;1.20;;
44110;SDS011;29774;52.664;5.074;2023-06-14T13:30:28;3.15;;;1.40;;
44110;SDS011;29774;52.664;5.074;2023-06-14T13:32:54;2.67;;;1.33;;
44110;SDS011;29774;52.664;5.074;2023-06-14T13:35:21;3.28;;;1.30;;
44110;SDS011;29774;52.664;5.074;2023-06-14T13:37:47;2.42;;;1.23;;
44110;SDS011;29774;52.664;5.074;2023-06-14T13:40:13;3.00;;;1.40;;
44110;SDS011;29774;52.664;5.074;2023-06-14T13:42:39;6.00;;;1.40;;
44110;SDS011;29774;52.664;5.074;2023-06-14T13:45:05;2.38;;;1.40;;
44110;SDS011;29774;52.664;5.074;2023-06-14T13:47:31;4.18;;;1.30;;
44110;SDS011;29774;52.664;5.074;2023-06-14T13:49:57;2.80;;;1.48;;
44110;SDS011;29774;52.664;5.074;2023-06-14T13:52:23;2.80;;;1.33;;
44110;SDS011;29774;52.664;5.074;2023-06-14T13:54:50;2.53;;;1.60;;
44110;SDS011;29774;52.664;5.074;2023-06-14T13:57:16;3.80;;;1.40;;
44110;SDS011;29774;52.664;5.074;2023-06-14T13:59:42;3.75;;;1.30;;
44110;SDS011;29774;52.664;5.074;2023-06-14T14:02:11;5.18;;;1.27;;
44110;SDS011;29774;52.664;5.074;2023-06-14T14:04:38;3.55;;;1.35;;
44110;SDS011;29774;52.664;5.074;2023-06-14T14:07:05;3.17;;;1.60;;
44110;SDS011;29774;52.664;5.074;2023-06-14T14:09:31;4.53;;;1.38;;
44110;SDS011;29774;52.664;5.074;2023-06-14T14:11:58;3.38;;;1.33;;
44110;SDS011;29774;52.664;5.074;2023-06-14T14:14:24;1.50;;;1.40;;
44110;SDS011;29774;52.664;5.074;2023-06-14T14:16:50;3.03;;;1.50;;
44110;SDS011;29774;52.664;5.074;2023-06-14T14:19:19;5.40;;;1.70;;
44110;SDS011;29774;52.664;5.074;2023-06-14T14:21:48;5.65;;;1.25;;
44110;SDS011;29774;52.664;5.074;2023-06-14T14:24:14;4.30;;;1.50;;
44110;SDS011;29774;52.664;5.074;2023-06-14T14:26:40;5.13;;;1.70;;
44110;SDS011;29774;52.664;5.074;2023-06-14T14:29:06;1.75;;;1.10;;
44110;SDS011;29774;52.664;5.074;2023-06-14T14:31:32;1.10;;;0.93;;
44110;SDS011;29774;52.664;5.074;2023-06-14T14:33:58;3.95;;;1.48;;
44110;SDS011;29774;52.664;5.074;2023-06-14T14:36:24;1.98;;;1.55;;
44110;SDS011;29774;52.664;5.074;2023-06-14T14:38:49;1.90;;;1.45;;
44110;SDS011;29774;52.664;5.074;2023-06-14T14:41:16;4.70;;;1.35;;
44110;SDS011;29774;52.664;5.074;2023-06-14T14:43:42;6.05;;;1.70;;
44110;SDS011;29774;52.664;5.074;2023-06-14T14:46:08;3.05;;;1.50;;
44110;SDS011;29774;52.664;5.074;2023-06-14T14:48:34;3.47;;;1.65;;
44110;SDS011;29774;52.664;5.074;2023-06-14T14:50:59;1.58;;;1.33;;
44110;SDS011;29774;52.664;5.074;2023-06-14T14:53:25;4.38;;;1.70;;
44110;SDS011;29774;52.664;5.074;2023-06-14T14:55:50;1.67;;;1.52;;
44110;SDS011;29774;52.664;5.074;2023-06-14T14:58:16;2.15;;;1.60;;
44110;SDS011;29774;52.664;5.074;2023-06-14T15:00:43;6.00;;;1.83;;
44110;SDS011;29774;52.664;5.074;2023-06-14T15:03:09;2.45;;;1.50;;
44110;SDS011;29774;52.664;5.074;2023-06-14T15:05:35;6.10;;;1.65;;
44110;SDS011;29774;52.664;5.074;2023-06-14T15:08:02;1.92;;;1.52;;
44110;SDS011;29774;52.664;5.074;2023-06-14T15:10:28;4.72;;;1.30;;